CheckWX is a tool to help pilots better visualize weather data.  It is not intended as a substitute for an official pre-flight weather briefing.

05:34:28 UTC

KEWK METAR
Newton-City-County Airport
Newton, Kansas, USA
Current

38 mins ago

KEWK 290456Z AUTO 36009KT 9SM OVC006 M02/M02 A3007 RMK AO2 SNE33 SLP195 P0000 T10171022 400061017 FZRANO
Observed
Jan-29 @ 04:56 UTC
Wind
  • 360° at 9 KTS
Visibility
9 SM
Flight Rules
IFR
Cloud Levels
  • Overcast at 600' AGL
Temperature
-2°C / 28°F
Dewpoint
-2°C / 28°F
Humidity
100%
Altimeter
30.07" Hg
Pressure
1018.32 hPa
Current Rain
0.01"
Previous

2 hours ago

KEWK 290356Z AUTO 03007KT 6SM -SN BR OVC004 M02/M02 A3006 RMK AO2 SLP190 P0000 T10171022 FZRANO
Observed
Jan-29 @ 03:56 UTC
Wind
  • 030° at 7 KTS
Visibility
6 SM
Flight Rules
LIFR
Conditions
Light Snow, Mist
Cloud Levels
  • Overcast at 400' AGL
Temperature
-2°C / 28°F
Dewpoint
-2°C / 28°F
Humidity
100%
Altimeter
30.06" Hg
Pressure
1017.92 hPa
Current Rain
0.01"
Previous

2 hours ago

KEWK 290318Z AUTO 02008KT 4SM -SN BR OVC004 M02/M02 A3005 RMK AO2 P0000 FZRANO
Observed
Jan-29 @ 03:18 UTC
Wind
  • 020° at 8 KTS
Visibility
4 SM
Flight Rules
LIFR
Conditions
Light Snow, Mist
Cloud Levels
  • Overcast at 400' AGL
Temperature
-2°C / 28°F
Dewpoint
-2°C / 28°F
Humidity
100%
Altimeter
30.05" Hg
Pressure
1017.62 hPa
Current Rain
0.01"